Terminal Aerodrome Forecast
Issued by NWS Cleveland, OH

Home | Current Version | Previous Version | Graphics & Text | Print | Product List | Glossary On
Versions: 1 2 3 4 5 6 7 8 9 10 11 12 13 14 15 16 17
000
FTUS41 KCLE 071700
TAFYNG
TAF
KYNG 071732Z 0718/0818 23015G25KT P6SM VCSH SCT030 BKN045 OVC100
      TEMPO 0720/0723 5SM -TSRA BR SCT019 BKN030CB OVC080
     FM080100 24009KT P6SM BKN045
     FM080800 22006KT 4SM BR SCT020 BKN150
     FM081400 21010KT 6SM BR VCSH BKN020 BKN035 OVC080=

USA.gov is the U.S. government's official web portal to all federal, state and local government web resources and services.